createdAt,value
2022-11-26T00:19:20.146Z,18.7
2022-11-26T00:39:20.119Z,18.6
2022-11-26T00:59:20.125Z,18.6
2022-11-26T01:19:20.060Z,18.6
2022-11-26T01:39:20.015Z,18.5
2022-11-26T01:59:19.990Z,18.5
2022-11-26T02:19:19.992Z,18.5
2022-11-26T02:39:20.081Z,18.4
2022-11-26T02:59:19.927Z,18.4
2022-11-26T03:19:19.895Z,18.4
2022-11-26T03:39:19.861Z,18.4
2022-11-26T03:59:19.876Z,18.4
2022-11-26T04:19:19.847Z,18.3
2022-11-26T04:39:19.817Z,18.3
2022-11-26T04:59:19.793Z,18.3
2022-11-26T05:19:19.758Z,18.4
2022-11-26T05:39:19.737Z,18.6
2022-11-26T05:59:19.705Z,18.7
2022-11-26T06:19:19.801Z,18.9
2022-11-26T06:39:19.692Z,18.9
2022-11-26T06:59:19.668Z,19.0
2022-11-26T07:19:19.668Z,19.0
2022-11-26T07:39:19.589Z,19.1
2022-11-26T07:59:19.691Z,19.2
2022-11-26T08:19:19.702Z,19.3
2022-11-26T08:39:19.697Z,19.3
2022-11-26T08:59:19.619Z,19.3
2022-11-26T09:19:19.470Z,19.3
2022-11-26T09:39:19.656Z,19.3
2022-11-26T09:59:19.620Z,19.3
2022-11-26T10:19:19.563Z,19.3
2022-11-26T10:39:19.548Z,19.3
2022-11-26T10:59:19.326Z,19.2
2022-11-26T11:19:19.428Z,19.4
2022-11-26T11:39:19.536Z,19.4
2022-11-26T11:59:19.504Z,19.3
2022-11-26T12:19:19.232Z,19.3
2022-11-26T12:39:19.484Z,19.2
2022-11-26T12:59:19.315Z,19.3
2022-11-26T13:19:19.207Z,19.3
2022-11-26T13:39:19.305Z,19.3
2022-11-26T13:59:19.287Z,19.3
2022-11-26T14:19:19.255Z,19.3
2022-11-26T14:39:19.292Z,19.3
2022-11-26T14:59:19.229Z,19.3
2022-11-26T15:19:19.203Z,19.4
2022-11-26T15:39:19.228Z,19.5
2022-11-26T15:59:19.137Z,19.5
2022-11-26T16:19:18.972Z,19.5
2022-11-26T16:39:18.943Z,19.5
2022-11-26T16:59:19.096Z,19.5
2022-11-26T17:19:19.146Z,19.5
2022-11-26T17:39:19.050Z,19.5
2022-11-26T17:59:18.854Z,19.5
2022-11-26T18:19:18.883Z,19.5
2022-11-26T18:39:18.886Z,19.5
2022-11-26T18:59:18.756Z,19.5
2022-11-26T19:19:18.853Z,19.5
2022-11-26T19:39:18.858Z,19.4
2022-11-26T19:59:18.768Z,19.3
2022-11-26T20:19:18.786Z,19.2
2022-11-26T20:39:18.671Z,19.1
2022-11-26T20:59:18.665Z,19.1
2022-11-26T21:19:18.688Z,19.0
2022-11-26T21:39:18.623Z,18.9
2022-11-26T21:59:18.549Z,18.8
2022-11-26T22:19:18.636Z,18.7
2022-11-26T22:39:18.475Z,18.7
2022-11-26T22:59:18.543Z,18.6
2022-11-26T23:19:18.526Z,18.5
2022-11-26T23:39:18.424Z,18.5
2022-11-26T23:59:18.456Z,18.5
